Latest Weather Observations for Cape Flattery

IDQ60801

Issued at 7:52 pm EST Sunday 29 March 2020 (issued every 10 minutes, with the page automatically refreshed every 10 minutes)

About weather observations | Map of weather stations | Latest weather observations for QLD | Other Formats
Station Details ID: 031213 Name: CAPE FLATTERY Lat: -14.97 Lon: 145.31 Height: 18.5 m
Data from the previous 72 hours. | See also: Recent months at Cape Flattery
Date/Time
EST
Temp
°C
App
Temp
°C
Dew
Point
°C
Rel
Hum
%
Delta-T
°C
Wind Press
QNH
hPa
Press
MSL
hPa
Rain since
9am
mm
Dir  Spd
km/h
Gust
km/h
Spd
kts
Gust
kts
29/07:30pm 27.2 28.7 24.3 84 2.0 SE 24 32 13 17 1010.2 1010.1 5.2
29/07:00pm 27.5 29.2 24.6 84 2.0 SE 24 33 13 18 1010.1 1010.0 5.2
29/06:30pm 27.3 29.2 24.4 84 2.0 SE 22 32 12 17 1009.7 1009.6 5.2
29/06:00pm 27.3 28.8 23.7 81 2.5 SE 22 33 12 18 1009.4 1009.3 5.2
29/05:30pm 27.8 30.3 24.8 84 2.1 SE 20 30 11 16 1009.2 1009.1 5.2
29/05:00pm 27.6 29.8 24.8 85 2.0 SE 22 30 12 16 1009.1 1009.0 5.2
29/04:30pm 28.6 30.1 24.4 78 2.9 SE 24 32 13 17 1008.7 1008.6 5.2
29/04:00pm 28.8 31.5 25.6 83 2.3 SE 22 32 12 17 1008.5 1008.4 5.2
29/03:30pm 28.1 31.2 25.7 87 1.7 SE 20 30 11 16 1008.5 1008.4 5.0
29/03:00pm 27.9 31.6 26.3 91 1.1 SE 19 26 10 14 1008.5 1008.4 5.0
29/02:30pm 26.3 28.6 24.5 90 1.2 ESE 20 32 11 17 1008.8 1008.7 5.0
29/02:00pm 25.4 27.6 24.2 93 0.8 ESE 20 30 11 16 1009.0 1008.9 3.6
29/01:50pm 25.9 27.9 23.9 89 1.4 ESE 20 39 11 21 1009.3 1009.2 2.2
29/01:30pm 26.1 29.6 24.9 93 0.8 SE 15 20 8 11 1009.3 1009.2 2.2
29/01:00pm 25.6 27.6 24.0 91 1.1 E 20 32 11 17 1009.7 1009.6 2.0
29/12:30pm 26.0 28.7 24.8 93 0.8 E 19 28 10 15 1010.0 1009.9 2.0
29/12:00pm 26.2 28.0 24.2 89 1.4 E 22 35 12 19 1010.5 1010.4 1.0
29/11:30am 29.7 30.4 24.3 73 3.8 SE 28 37 15 20 1010.6 1010.5 0.4
29/11:00am 29.0 31.0 25.2 80 2.7 SE 24 35 13 19 1010.8 1010.7 0.4
29/10:30am 27.1 28.8 24.6 86 1.7 SE 24 37 13 20 1011.3 1011.2 0.4
29/10:00am 29.2 30.3 24.3 75 3.4 SE 26 35 14 19 1011.4 1011.3 0.0
29/09:30am 28.2 30.5 25.6 86 1.8 SE 24 35 13 19 1011.3 1011.2 0.0
29/09:00am 27.7 29.5 24.9 85 2.0 SE 24 32 13 17 1011.1 1011.0 6.4
29/08:30am 28.2 31.2 25.6 86 1.8 SE 20 32 11 17 1010.8 1010.7 6.4
29/08:00am 26.2 28.0 24.2 89 1.4 SE 22 35 12 19 1010.3 1010.2 6.4
29/07:30am 26.6 29.6 25.2 92 1.0 ESE 19 26 10 14 1010.2 1010.1 6.4
29/07:00am 25.7 28.5 24.3 92 1.0 SE 17 26 9 14 1009.9 1009.8 6.4
29/06:30am 25.5 28.6 24.8 96 0.5 SE 17 22 9 12 1009.5 1009.4 6.4
29/06:00am 24.9 25.1 23.5 92 1.0 SE 28 37 15 20 1009.4 1009.3 6.4
29/05:30am 26.3 27.9 24.5 90 1.2 SE 24 32 13 17 1008.8 1008.7 5.8
29/05:00am 26.0 27.9 24.4 91 1.1 SE 22 33 12 18 1008.5 1008.4 5.8
29/04:30am 25.7 27.9 23.9 90 1.2 SE 19 26 10 14 1008.3 1008.2 5.8
29/04:00am 25.6 27.8 24.0 91 1.1 ESE 19 26 10 14 1008.6 1008.5 5.8
29/03:30am 25.4 27.6 24.0 92 1.0 ESE 19 28 10 15 1008.6 1008.5 5.8
29/03:00am 25.2 26.8 23.8 92 1.0 ESE 22 33 12 18 1008.9 1008.8 5.8
29/02:30am 24.4 24.6 23.4 94 0.7 ESE 28 43 15 23 1009.3 1009.2 5.6
29/02:00am 24.9 25.0 23.3 91 1.1 SE 28 44 15 24 1009.4 1009.3 4.8
29/01:30am 26.5 27.8 24.0 86 1.7 SE 24 33 13 18 1009.5 1009.4 4.8
29/01:00am 26.2 28.2 23.9 87 1.6 ESE 20 26 11 14 1009.7 1009.6 4.8
29/12:30am 26.0 27.6 23.9 88 1.4 ESE 22 32 12 17 1010.2 1010.1 4.8
29/12:00am 25.7 26.4 23.7 89 1.4 ESE 26 37 14 20 1010.5 1010.4 4.8
 
Date/Time
EST
Temp
°C
App
Temp
°C
Dew
Point
°C
Rel
Hum
%
Delta-T
°C
Wind Press
QNH
hPa
Press
MSL
hPa
Rain since
9am
mm
Dir  Spd
km/h
Gust
km/h
Spd
kts
Gust
kts
28/11:30pm 25.3 26.3 24.1 93 0.8 SE 26 39 14 21 1010.3 1010.2 4.8
28/11:00pm 25.0 26.3 24.0 94 0.7 ESE 24 32 13 17 1010.3 1010.2 4.6
28/10:36pm 24.9 24.4 23.5 92 1.0 ESE 32 50 17 27 1010.5 1010.4 4.6
28/10:30pm 25.1 24.4 23.5 91 1.1 ESE 33 50 18 27 1010.5 1010.4 4.6
28/10:24pm 25.4 25.6 23.5 89 1.3 SE 28 46 15 25 1010.5 1010.4 4.6
28/10:23pm 25.6 26.0 23.8 90 1.2 SE 28 44 15 24 1010.5 1010.4 4.6
28/10:00pm 26.1 28.1 24.0 88 1.4 SE 20 26 11 14 1010.5 1010.4 4.6
28/09:30pm 25.6 28.0 24.2 92 1.0 SE 19 26 10 14 1010.8 1010.7 4.6
28/09:00pm 25.3 27.6 24.1 93 0.8 SE 19 28 10 15 1010.6 1010.5 4.6
28/08:30pm 25.2 26.9 23.4 90 1.2 SE 20 28 11 15 1010.5 1010.4 4.6
28/08:00pm 25.4 26.6 23.8 91 1.1 SE 24 32 13 17 1010.3 1010.2 4.6
28/07:30pm 25.2 27.3 23.8 92 1.0 SE 19 28 10 15 1009.8 1009.7 4.6
28/07:00pm 26.6 27.5 23.9 85 1.9 SSE 26 35 14 19 1009.3 1009.2 2.2
28/06:30pm 26.5 24.9 21.5 74 3.3 SE 32 48 17 26 1009.3 1009.2 2.2
28/06:25pm 26.8 26.0 22.4 77 3.0 SE 30 48 16 26 1009.2 1009.1 2.2
28/06:00pm 27.8 28.4 23.4 77 3.0 SSE 26 35 14 19 1009.0 1008.9 2.2
28/05:30pm 28.3 28.7 23.7 76 3.2 SSE 28 39 15 21 1008.8 1008.7 2.2
28/05:00pm 28.2 27.8 23.1 74 3.5 SSE 30 37 16 20 1008.4 1008.3 2.2
28/04:30pm 29.2 29.3 23.9 73 3.7 SSE 30 39 16 21 1008.3 1008.2 2.2
28/04:00pm 29.4 29.7 23.6 71 4.0 SE 28 35 15 19 1008.5 1008.4 2.2
28/03:30pm 29.5 29.1 23.7 71 4.0 SE 32 41 17 22 1008.6 1008.5 2.2
28/03:00pm 29.9 30.6 24.3 72 3.9 SSE 28 35 15 19 1009.0 1008.9 2.2
28/02:30pm 29.3 29.3 23.7 72 3.9 SE 30 37 16 20 1009.4 1009.3 2.2
28/02:00pm 29.5 30.2 23.7 71 4.0 SE 26 37 14 20 1009.5 1009.4 2.2
28/01:30pm 28.8 29.8 24.8 79 2.8 SE 28 37 15 20 1009.8 1009.7 2.0
28/01:00pm 26.9 29.9 24.7 88 1.5 SE 17 32 9 17 1010.1 1010.0 2.0
28/12:30pm 30.3 30.2 23.5 67 4.7 SE 30 39 16 21 1010.4 1010.3 0.0
28/12:00pm 30.0 29.8 23.4 67 4.5 SE 30 39 16 21 1010.9 1010.8 0.0
28/11:30am 30.3 30.7 24.4 70 4.1 SE 30 39 16 21 1011.3 1011.2 0.0
28/11:00am 29.9 29.6 23.8 70 4.2 SE 32 39 17 21 1011.6 1011.5 0.0
28/10:30am 29.6 30.1 24.0 72 3.9 SE 28 39 15 21 1011.7 1011.6 0.0
28/10:00am 29.5 30.3 24.4 74 3.6 SE 28 35 15 19 1011.6 1011.5 0.0
28/09:30am 28.6 30.1 24.4 78 2.9 SE 24 33 13 18 1011.6 1011.5 0.0
28/09:00am 28.2 29.1 24.0 78 2.9 SE 26 33 14 18 1011.5 1011.4 9.4
28/08:30am 28.1 29.3 24.5 81 2.5 SE 26 37 14 20 1011.3 1011.2 9.4
28/08:00am 27.6 29.3 24.0 81 2.5 SE 22 32 12 17 1010.9 1010.8 9.4
28/07:30am 27.1 28.9 24.2 84 2.0 SE 22 32 12 17 1010.6 1010.5 9.4
28/07:00am 26.8 28.5 24.1 85 1.9 SE 22 32 12 17 1010.4 1010.3 9.4
28/06:30am 26.6 27.8 23.9 85 1.9 SE 24 32 13 17 1010.1 1010.0 9.4
28/06:00am 26.5 28.3 24.3 88 1.5 SE 22 32 12 17 1009.8 1009.7 9.4
28/05:30am 26.3 28.6 24.5 90 1.2 SE 20 32 11 17 1009.6 1009.5 9.4
28/05:00am 25.7 26.8 23.7 89 1.4 SE 24 35 13 19 1009.3 1009.2 9.4
28/04:30am 25.5 26.8 24.1 92 1.0 SE 24 33 13 18 1009.1 1009.0 9.4
28/04:00am 25.5 26.8 24.1 92 1.0 SE 24 35 13 19 1009.0 1008.9 9.2
28/03:30am 25.8 28.0 24.2 91 1.1 SSE 20 26 11 14 1009.2 1009.1 9.0
28/03:00am 25.8 27.5 24.0 90 1.2 SE 22 33 12 18 1009.5 1009.4 9.0
28/02:30am 25.3 26.9 23.9 92 1.0 SSE 22 28 12 15 1009.7 1009.6 9.0
28/02:00am 25.4 26.3 24.0 92 1.0 SE 26 39 14 21 1009.8 1009.7 9.0
28/01:30am 23.8 24.5 22.2 91 1.1 SE 22 39 12 21 1010.5 1010.4 7.2
28/01:14am 25.0 26.4 23.6 92 1.0 SE 22 46 12 25 1010.6 1010.5 5.6
28/01:00am 25.2 28.1 23.8 92 1.0 SE 15 20 8 11 1010.5 1010.4 4.2
28/12:30am 24.8 26.0 23.8 94 0.7 SE 24 39 13 21 1011.1 1011.0 4.0
28/12:00am 26.9 26.8 23.6 82 2.3 SE 30 39 16 21 1010.8 1010.7 3.0
 
Date/Time
EST
Temp
°C
App
Temp
°C
Dew
Point
°C
Rel
Hum
%
Delta-T
°C
Wind Press
QNH
hPa
Press
MSL
hPa
Rain since
9am
mm
Dir  Spd
km/h
Gust
km/h
Spd
kts
Gust
kts
27/11:30pm 26.8 26.7 23.5 82 2.3 SE 30 39 16 21 1011.0 1010.9 3.0
27/11:00pm 26.5 27.7 23.8 85 1.9 SE 24 35 13 19 1011.3 1011.2 3.0
27/10:30pm 26.2 27.1 23.3 84 2.0 SE 24 37 13 20 1011.6 1011.5 3.0
27/10:00pm 26.2 27.3 23.7 86 1.7 SE 24 35 13 19 1011.7 1011.6 3.0
27/09:30pm 26.2 28.1 24.4 90 1.2 SE 22 32 12 17 1011.7 1011.6 3.0
27/09:00pm 25.9 27.7 24.3 91 1.1 SE 22 35 12 19 1011.7 1011.6 3.0
27/08:30pm 25.7 27.7 24.5 93 0.8 SE 22 30 12 16 1011.6 1011.5 3.0
27/08:00pm 25.4 27.0 24.5 95 0.6 SE 24 35 13 19 1011.3 1011.2 3.0
27/07:30pm 25.4 28.1 24.2 93 0.8 ESE 17 26 9 14 1011.2 1011.1 2.0
27/07:00pm 25.9 28.5 24.9 94 0.7 SSE 20 30 11 16 1010.9 1010.8 1.0
27/06:30pm 25.8 29.2 24.6 93 0.8 SSE 15 20 8 11 1010.7 1010.6 1.0
27/06:00pm 25.9 29.1 24.9 94 0.7 SSE 17 24 9 13 1010.6 1010.5 1.0
27/05:30pm 26.2 28.3 24.1 88 1.4 SSE 20 28 11 15 1010.4 1010.3 0.6
27/05:00pm 26.6 28.6 23.9 85 1.9 SE 20 30 11 16 1010.4 1010.3 0.6
27/04:30pm 26.5 28.6 24.7 90 1.3 SE 22 32 12 17 1010.3 1010.2 0.6
27/04:00pm 26.3 28.6 24.5 90 1.2 SE 20 26 11 14 1010.1 1010.0 0.6
27/03:30pm 26.4 28.3 25.0 92 1.0 SE 24 32 13 17 1010.0 1009.9 0.6
27/03:00pm 25.7 26.9 23.9 90 1.2 SE 24 37 13 20 1010.1 1010.0 0.6
27/02:30pm 26.6 30.5 24.8 90 1.3 E 13 19 7 10 1010.1 1010.0 0.6
27/02:00pm 25.5 25.3 22.0 81 2.3 E 26 41 14 22 1010.8 1010.7 0.2
27/01:30pm 29.1 30.9 24.9 78 2.9 SE 24 30 13 16 1011.1 1011.0 0.2
27/01:00pm 29.1 30.1 23.5 72 3.9 SE 24 32 13 17 1011.6 1011.5 0.2
27/12:30pm 28.3 31.2 23.9 77 3.0 E 15 20 8 11 1012.0 1011.9 0.2
27/12:00pm 29.3 31.6 24.4 75 3.4 ESE 20 30 11 16 1012.3 1012.2 0.2
27/11:30am 29.8 32.0 24.9 75 3.4 ESE 22 35 12 19 1012.7 1012.6 0.2
27/11:00am 29.7 31.6 25.0 76 3.3 ESE 24 33 13 18 1012.9 1012.8 0.2
27/10:30am 29.5 32.2 25.0 77 3.2 ESE 20 28 11 15 1013.0 1012.9 0.0
27/10:00am 28.3 29.6 23.4 75 3.4 SE 22 30 12 16 1013.2 1013.1 0.0
27/09:30am 27.7 29.6 23.5 78 2.9 ESE 19 26 10 14 1013.2 1013.1 0.0
27/09:00am 27.3 29.8 24.4 84 2.0 ESE 19 26 10 14 1012.8 1012.7 13.8
27/08:30am 26.8 28.9 24.1 85 1.9 ESE 20 28 11 15 1012.3 1012.2 13.8
27/08:00am 26.4 28.1 24.1 87 1.6 ESE 22 33 12 18 1011.9 1011.8 13.8
27/07:30am 26.1 28.6 24.5 91 1.1 ESE 19 26 10 14 1011.5 1011.4 13.8
27/07:00am 25.6 28.3 24.2 92 1.0 ESE 17 22 9 12 1011.1 1011.0 13.8
27/06:30am 25.5 28.2 24.1 92 1.0 ESE 17 26 9 14 1010.5 1010.4 13.8
27/06:00am 25.2 27.7 23.8 92 1.0 ESE 17 24 9 13 1010.2 1010.1 13.8
27/05:30am 25.3 27.5 24.3 94 0.7 ESE 20 32 11 17 1010.3 1010.2 13.8
27/05:00am 25.1 26.8 24.1 94 0.7 ESE 22 35 12 19 1010.3 1010.2 13.8
27/04:30am 24.7 26.2 23.7 94 0.7 ESE 22 33 12 18 1010.4 1010.3 13.8
27/04:00am 24.9 26.7 24.2 96 0.5 ESE 22 35 12 19 1010.6 1010.5 13.6
27/03:30am 24.8 26.5 24.1 96 0.5 ESE 22 33 12 18 1010.7 1010.6 13.2
27/03:00am 24.5 26.1 23.8 96 0.5 ESE 22 32 12 17 1011.2 1011.1 12.2
27/02:30am 24.5 25.7 23.8 96 0.5 ESE 24 35 13 19 1011.6 1011.5 11.4
27/02:00am 24.1 25.8 23.1 94 0.7 ESE 19 30 10 16 1011.8 1011.7 11.2
27/01:30am 24.2 25.4 23.2 94 0.7 ESE 22 35 12 19 1012.3 1012.2 10.4
27/01:00am 24.2 26.4 23.2 94 0.7 ESE 17 26 9 14 1012.5 1012.4 9.8
27/12:30am 24.5 26.9 23.6 95 0.6 ESE 17 26 9 14 1012.6 1012.5 9.4
27/12:00am 24.7 26.6 23.8 95 0.6 ESE 20 28 11 15 1012.8 1012.7 9.4
 
Date/Time
EST
Temp
°C
App
Temp
°C
Dew
Point
°C
Rel
Hum
%
Delta-T
°C
Wind Press
QNH
hPa
Press
MSL
hPa
Rain since
9am
mm
Dir  Spd
km/h
Gust
km/h
Spd
kts
Gust
kts
26/11:30pm 24.8 27.9 24.1 96 0.5 ESE 15 20 8 11 1012.8 1012.7 8.2
26/11:00pm 24.6 25.8 23.9 96 0.5 ESE 24 35 13 19 1012.9 1012.8 5.4
26/10:30pm 24.4 25.0 23.4 94 0.7 ESE 26 35 14 19 1013.1 1013.0 3.6
26/10:00pm 24.5 24.7 23.5 94 0.7 ESE 28 39 15 21 1012.9 1012.8 3.6
26/09:30pm 24.7 25.9 23.8 95 0.6 ESE 24 41 13 22 1012.7 1012.6 3.2
26/09:00pm 24.9 26.1 23.9 94 0.7 ESE 24 39 13 21 1012.5 1012.4 3.0
26/08:30pm 25.3 27.5 24.3 94 0.7 ESE 20 28 11 15 1012.2 1012.1 1.4
26/08:00pm 25.5 28.0 24.5 94 0.7 ESE 19 26 10 14 1011.9 1011.8 0.4

Other formats

Comma delimited format used in spreadsheet applications
http://www.bom.gov.au/fwo/IDQ60801/IDQ60801.94188.axf

JavaScript Object Notation format (JSON) in row-major order
http://www.bom.gov.au/fwo/IDQ60801/IDQ60801.94188.json

Data quality

Most of these data are generated automatically and are frequently updated. Quality checks on data are not normally performed. It is possible for incorrect values to appear. Refer to information at About Latest Weather Observations and please check the disclaimer before using these data.